createdAt,value
2018-06-16T00:02:08.576Z,101580.17
2018-06-16T00:05:12.978Z,101582.35
2018-06-16T00:08:17.538Z,101577.95
2018-06-16T00:11:21.980Z,101580.98
2018-06-16T00:14:26.353Z,101577.48
2018-06-16T00:17:30.753Z,101579.50
2018-06-16T00:20:35.134Z,101576.75
2018-06-16T00:23:39.509Z,101573.77
2018-06-16T00:26:43.890Z,101570.80
2018-06-16T00:29:48.269Z,101578.77
2018-06-16T00:32:52.649Z,101574.74
2018-06-16T00:35:57.090Z,101580.75
2018-06-16T00:39:01.483Z,101575.22
2018-06-16T00:42:05.922Z,101571.80
2018-06-16T00:45:10.285Z,101568.77
2018-06-16T00:48:14.705Z,101568.73
2018-06-16T00:51:19.925Z,101559.70
2018-06-16T00:54:24.326Z,101564.42
2018-06-16T00:57:41.304Z,101565.80
2018-06-16T01:00:45.698Z,101557.20
2018-06-16T01:03:50.093Z,101556.67
2018-06-16T01:06:54.501Z,101561.92
2018-06-16T01:09:58.900Z,101555.67
2018-06-16T01:13:03.288Z,101551.56
2018-06-16T01:16:07.705Z,101552.93
2018-06-16T01:19:12.075Z,101567.23
2018-06-16T01:22:16.498Z,101558.45
2018-06-16T01:25:20.860Z,101559.02
2018-06-16T01:28:25.232Z,101561.20
2018-06-16T01:31:29.622Z,101546.13
2018-06-16T01:34:34.037Z,101556.27
2018-06-16T01:37:38.453Z,101551.84
2018-06-16T01:40:42.868Z,101553.45
2018-06-16T01:43:47.245Z,101554.54
2018-06-16T01:46:51.620Z,101548.70
2018-06-16T01:49:55.996Z,101552.20
2018-06-16T01:53:00.393Z,101554.90
2018-06-16T01:56:04.792Z,101550.98
2018-06-16T01:59:09.205Z,101544.66
2018-06-16T02:02:13.568Z,101546.38
2018-06-16T02:05:17.956Z,101538.27
2018-06-16T02:08:22.533Z,101541.25
2018-06-16T02:11:26.917Z,101538.39
2018-06-16T02:14:31.314Z,101540.55
2018-06-16T02:17:35.719Z,101533.09
2018-06-16T02:20:40.140Z,101540.70
2018-06-16T02:23:44.539Z,101538.45
2018-06-16T02:26:48.905Z,101533.45
2018-06-16T02:29:53.297Z,101541.02
2018-06-16T02:32:57.681Z,101536.58
2018-06-16T02:36:02.055Z,101532.95
2018-06-16T02:39:09.505Z,101535.36
2018-06-16T02:42:13.872Z,101528.14
2018-06-16T02:45:18.249Z,101520.64
2018-06-16T02:48:22.620Z,101518.70
2018-06-16T02:51:27.029Z,101521.12
2018-06-16T02:54:31.378Z,101513.98
2018-06-16T02:57:35.773Z,101516.12
2018-06-16T03:00:40.184Z,101516.67
2018-06-16T03:03:44.556Z,101511.20
2018-06-16T03:06:48.937Z,101506.53
2018-06-16T03:09:53.313Z,101510.12
2018-06-16T03:12:57.734Z,101503.03
2018-06-16T03:16:02.096Z,101498.98
2018-06-16T03:19:06.493Z,101495.53
2018-06-16T03:22:10.868Z,101485.55
2018-06-16T03:25:15.233Z,101489.78
2018-06-16T03:28:19.602Z,101485.44
2018-06-16T03:31:23.948Z,101476.45
2018-06-16T03:34:28.310Z,101467.23
2018-06-16T03:37:32.687Z,101472.19
2018-06-16T03:40:37.064Z,101469.25
2018-06-16T03:43:41.467Z,101461.39
2018-06-16T03:46:45.872Z,101460.39
2018-06-16T03:49:50.282Z,101448.99
2018-06-16T03:52:54.698Z,101449.11
2018-06-16T03:55:59.117Z,101448.98
2018-06-16T03:59:03.519Z,101449.67
2018-06-16T04:02:07.945Z,101449.43
2018-06-16T04:05:12.316Z,101445.88
2018-06-16T04:08:16.701Z,101445.92
2018-06-16T04:11:21.068Z,101442.94
2018-06-16T04:14:25.565Z,101450.91
2018-06-16T04:17:29.954Z,101442.45
2018-06-16T04:20:34.356Z,101444.77
2018-06-16T04:23:38.736Z,101437.12
2018-06-16T04:26:43.108Z,101441.30
2018-06-16T04:29:47.500Z,101435.86
2018-06-16T04:32:51.905Z,101438.36
2018-06-16T04:35:56.682Z,101437.58
2018-06-16T04:39:01.110Z,101440.08
2018-06-16T04:42:05.905Z,101441.20
2018-06-16T04:45:10.286Z,101440.44
2018-06-16T04:48:14.684Z,101435.52
2018-06-16T04:51:19.073Z,101439.70
2018-06-16T04:54:23.609Z,101433.97
2018-06-16T04:57:28.004Z,101437.59
2018-06-16T05:00:32.358Z,101431.02
2018-06-16T05:03:36.723Z,101422.61
2018-06-16T05:06:41.098Z,101417.77
2018-06-16T05:09:45.490Z,101415.05
2018-06-16T05:12:49.837Z,101415.69
2018-06-16T05:15:54.248Z,101410.02
2018-06-16T05:18:58.609Z,101409.03
2018-06-16T05:22:02.998Z,101406.73
2018-06-16T05:25:07.401Z,101408.48
2018-06-16T05:28:11.761Z,101408.67
2018-06-16T05:31:16.157Z,101409.91
2018-06-16T05:34:20.560Z,101402.11
2018-06-16T05:37:24.953Z,101403.60
2018-06-16T05:40:29.325Z,101403.44
2018-06-16T05:43:33.703Z,101408.70
2018-06-16T05:46:38.081Z,101406.32
2018-06-16T05:49:42.462Z,101394.33
2018-06-16T05:52:46.809Z,101393.01
2018-06-16T05:55:51.236Z,101397.18
2018-06-16T05:58:55.598Z,101404.38
2018-06-16T06:01:59.981Z,101403.06
2018-06-16T06:05:04.373Z,101409.95
2018-06-16T06:08:08.757Z,101409.45
2018-06-16T06:11:13.120Z,101412.45
2018-06-16T06:14:17.493Z,101426.44
2018-06-16T06:17:21.860Z,101423.41
2018-06-16T06:20:26.225Z,101413.46
2018-06-16T06:23:30.605Z,101418.94
2018-06-16T06:26:35.000Z,101414.25
2018-06-16T06:29:39.095Z,101409.63
2018-06-16T06:32:43.473Z,101402.81
2018-06-16T06:35:47.846Z,101397.92
2018-06-16T06:38:52.246Z,101392.79
2018-06-16T06:41:56.621Z,101389.66
2018-06-16T06:45:00.993Z,101385.61
2018-06-16T06:48:05.430Z,101378.20
2018-06-16T06:51:09.804Z,101386.98
2018-06-16T06:54:14.209Z,101383.12
2018-06-16T06:57:18.589Z,101386.05
2018-06-16T07:00:22.969Z,101381.21
2018-06-16T07:03:27.356Z,101383.22
2018-06-16T07:06:31.717Z,101394.55
2018-06-16T07:09:36.089Z,101394.47
2018-06-16T07:12:40.194Z,101397.44
2018-06-16T07:15:44.577Z,101393.20
2018-06-16T07:18:48.945Z,101390.41
2018-06-16T07:21:53.335Z,101395.30
2018-06-16T07:24:57.706Z,101387.66
2018-06-16T07:28:02.068Z,101389.20
2018-06-16T07:31:06.472Z,101385.19
2018-06-16T07:34:10.861Z,101391.46
2018-06-16T07:37:15.223Z,101391.74
2018-06-16T07:40:19.620Z,101384.59
2018-06-16T07:43:23.982Z,101381.60
2018-06-16T07:46:28.343Z,101382.19
2018-06-16T07:49:32.700Z,101379.23
2018-06-16T07:52:37.102Z,101375.20
2018-06-16T07:55:41.450Z,101370.05
2018-06-16T07:58:45.818Z,101378.69
2018-06-16T08:01:50.216Z,101377.98
2018-06-16T08:04:54.596Z,101378.05
2018-06-16T08:07:58.949Z,101374.80
2018-06-16T08:11:03.333Z,101373.75
2018-06-16T08:14:07.684Z,101371.58
2018-06-16T08:17:12.087Z,101369.98
2018-06-16T08:20:16.429Z,101370.54
2018-06-16T08:23:20.817Z,101366.98
2018-06-16T08:26:25.196Z,101376.36
2018-06-16T08:29:29.605Z,101377.83
2018-06-16T08:32:33.962Z,101379.75
2018-06-16T08:35:38.361Z,101383.08
2018-06-16T08:38:42.760Z,101382.55
2018-06-16T08:41:47.153Z,101382.29
2018-06-16T08:44:51.562Z,101385.63
2018-06-16T08:47:55.964Z,101389.80
2018-06-16T08:51:00.343Z,101391.50
2018-06-16T08:54:04.781Z,101380.22
2018-06-16T08:57:09.157Z,101375.77
2018-06-16T09:00:13.560Z,101373.56
2018-06-16T09:03:17.938Z,101366.67
2018-06-16T09:06:22.314Z,101369.11
2018-06-16T09:09:26.685Z,101368.59
2018-06-16T09:12:31.109Z,101358.20
2018-06-16T09:15:35.479Z,101355.20
2018-06-16T09:18:39.898Z,101359.67
2018-06-16T09:21:44.305Z,101370.97
2018-06-16T09:24:50.793Z,101362.75
2018-06-16T09:27:55.208Z,101367.95
2018-06-16T09:30:59.600Z,101366.62
2018-06-16T09:34:04.007Z,101368.80
2018-06-16T09:37:08.570Z,101361.11
2018-06-16T09:40:12.988Z,101366.89
2018-06-16T09:43:17.383Z,101368.84
2018-06-16T09:46:21.810Z,101365.83
2018-06-16T09:49:26.162Z,101364.48
2018-06-16T09:52:30.589Z,101361.47
2018-06-16T09:55:35.045Z,101353.80
2018-06-16T09:58:39.447Z,101350.23
2018-06-16T10:01:43.801Z,101351.07
2018-06-16T10:04:48.197Z,101346.94
2018-06-16T10:07:52.566Z,101351.38
2018-06-16T10:10:56.938Z,101345.87
2018-06-16T10:14:01.274Z,101352.19
2018-06-16T10:17:05.777Z,101364.85
2018-06-16T10:20:10.209Z,101370.31
2018-06-16T10:23:14.584Z,101374.13
2018-06-16T10:26:18.976Z,101374.39
2018-06-16T10:29:23.351Z,101377.38
2018-06-16T10:32:27.734Z,101366.36
2018-06-16T10:35:32.111Z,101363.87
2018-06-16T10:38:36.489Z,101355.03
2018-06-16T10:41:41.079Z,101336.50
2018-06-16T10:44:45.450Z,101328.23
2018-06-16T10:47:49.585Z,101316.11
2018-06-16T10:50:53.954Z,101326.53
2018-06-16T10:53:58.348Z,101324.75
2018-06-16T10:57:02.717Z,101310.84
2018-06-16T11:00:07.171Z,101297.08
2018-06-16T11:03:11.584Z,101290.67
2018-06-16T11:06:15.973Z,101295.91
2018-06-16T11:09:20.384Z,101286.81
2018-06-16T11:12:24.785Z,101283.22
2018-06-16T11:15:29.190Z,101285.48
2018-06-16T11:18:33.571Z,101277.37
2018-06-16T11:21:38.076Z,101272.49
2018-06-16T11:24:42.480Z,101261.53
2018-06-16T11:27:50.907Z,101269.57
2018-06-16T11:30:55.277Z,101267.73
2018-06-16T11:33:59.697Z,101264.98
2018-06-16T11:37:04.070Z,101257.33
2018-06-16T11:40:08.506Z,101260.36
2018-06-16T11:43:12.874Z,101255.42
2018-06-16T11:46:17.302Z,101248.57
2018-06-16T11:49:21.710Z,101246.71
2018-06-16T11:52:26.144Z,101239.63
2018-06-16T11:55:30.536Z,101245.46
2018-06-16T11:58:34.991Z,101248.81
2018-06-16T12:01:39.395Z,101240.30
2018-06-16T12:04:43.801Z,101244.76
2018-06-16T12:07:48.202Z,101238.67
2018-06-16T12:10:52.662Z,101231.24
2018-06-16T12:13:57.076Z,101229.59
2018-06-16T12:17:01.495Z,101233.14
2018-06-16T12:20:05.910Z,101225.70
2018-06-16T12:23:10.333Z,101221.27
2018-06-16T12:26:14.708Z,101215.77
2018-06-16T12:29:19.132Z,101215.19
2018-06-16T12:32:23.540Z,101197.84
2018-06-16T12:35:27.937Z,101193.14
2018-06-16T12:38:32.340Z,101196.47
2018-06-16T12:41:36.755Z,101197.58
2018-06-16T12:44:41.329Z,101198.39
2018-06-16T12:47:45.830Z,101204.48
2018-06-16T12:50:50.630Z,101193.47
2018-06-16T12:53:55.020Z,101190.16
2018-06-16T12:56:59.490Z,101185.70
2018-06-16T13:00:03.902Z,101183.48
2018-06-16T13:03:08.332Z,101191.19
2018-06-16T13:06:12.737Z,101199.72
2018-06-16T13:09:17.151Z,101201.09
2018-06-16T13:12:21.564Z,101196.13
2018-06-16T13:15:25.974Z,101190.58
2018-06-16T13:18:30.361Z,101193.36
2018-06-16T13:21:34.484Z,101193.05
2018-06-16T13:24:38.926Z,101195.81
2018-06-16T13:27:43.374Z,101180.88
2018-06-16T13:30:47.849Z,101166.78
2018-06-16T13:33:52.248Z,101174.75
2018-06-16T13:36:56.661Z,101171.72
2018-06-16T13:40:01.041Z,101176.34
2018-06-16T13:43:05.496Z,101169.66
2018-06-16T13:46:09.853Z,101175.20
2018-06-16T13:49:14.271Z,101175.73
2018-06-16T13:52:18.775Z,101184.89
2018-06-16T13:55:23.178Z,101185.97
2018-06-16T13:58:27.553Z,101183.70
2018-06-16T14:01:31.933Z,101181.14
2018-06-16T14:04:36.353Z,101177.00
2018-06-16T14:07:40.762Z,101175.07
2018-06-16T14:10:45.182Z,101170.89
2018-06-16T14:13:49.596Z,101174.98
2018-06-16T14:16:53.997Z,101166.95
2018-06-16T14:19:58.416Z,101168.02
2018-06-16T14:23:02.566Z,101171.91
2018-06-16T14:26:07.009Z,101165.56
2018-06-16T14:29:11.414Z,101162.51
2018-06-16T14:32:15.804Z,101153.11
2018-06-16T14:35:20.202Z,101151.47
2018-06-16T14:38:24.634Z,101154.81
2018-06-16T14:41:29.059Z,101157.64
2018-06-16T14:44:33.469Z,101153.23
2018-06-16T14:47:37.899Z,101157.98
2018-06-16T14:50:42.293Z,101154.14
2018-06-16T14:53:46.725Z,101158.03
2018-06-16T14:56:51.157Z,101156.65
2018-06-16T14:59:55.573Z,101147.52
2018-06-16T15:02:59.965Z,101143.11
2018-06-16T15:06:04.379Z,101146.97
2018-06-16T15:09:10.680Z,101146.97
2018-06-16T15:12:15.084Z,101146.94
2018-06-16T15:15:19.505Z,101143.87
2018-06-16T15:18:23.925Z,101144.39
2018-06-16T15:21:28.333Z,101141.05
2018-06-16T15:24:32.728Z,101143.52
2018-06-16T15:27:37.156Z,101136.55
2018-06-16T15:30:41.557Z,101133.78
2018-06-16T15:33:45.961Z,101139.34
2018-06-16T15:36:50.349Z,101133.27
2018-06-16T15:39:54.769Z,101131.11
2018-06-16T15:42:59.173Z,101123.70
2018-06-16T15:46:03.585Z,101115.75
2018-06-16T15:49:08.410Z,101113.05
2018-06-16T15:52:12.821Z,101116.66
2018-06-16T15:55:17.184Z,101139.61
2018-06-16T15:58:21.548Z,101162.07
2018-06-16T16:01:25.941Z,101133.25
2018-06-16T16:04:30.340Z,101139.38
2018-06-16T16:07:34.728Z,101139.89
2018-06-16T16:10:39.106Z,101136.02
2018-06-16T16:13:43.535Z,101141.26
2018-06-16T16:16:47.913Z,101141.83
2018-06-16T16:19:52.329Z,101140.16
2018-06-16T16:22:56.729Z,101146.51
2018-06-16T16:26:01.123Z,101145.95
2018-06-16T16:29:05.566Z,101146.23
2018-06-16T16:32:09.921Z,101143.50
2018-06-16T16:35:14.308Z,101129.42
2018-06-16T16:38:18.925Z,101129.97
2018-06-16T16:41:23.695Z,101132.47
2018-06-16T16:44:28.399Z,101133.55
2018-06-16T16:47:32.905Z,101134.95
2018-06-16T16:50:37.390Z,101143.50
2018-06-16T16:53:43.655Z,101136.88
2018-06-16T16:56:48.401Z,101144.86
2018-06-16T16:59:53.631Z,101144.60
2018-06-16T17:02:58.444Z,101147.37
2018-06-16T17:06:02.928Z,101145.41
2018-06-16T17:09:09.829Z,101147.07
2018-06-16T17:12:14.201Z,101144.30
2018-06-16T17:15:18.568Z,101142.66
2018-06-16T17:18:22.936Z,101149.27
2018-06-16T17:21:27.307Z,101145.14
2018-06-16T17:24:31.685Z,101144.05
2018-06-16T17:27:36.092Z,101152.04
2018-06-16T17:30:40.472Z,101159.75
2018-06-16T17:33:44.857Z,101158.92
2018-06-16T17:36:49.258Z,101159.47
2018-06-16T17:39:53.944Z,101156.97
2018-06-16T17:42:58.334Z,101160.81
2018-06-16T17:46:02.697Z,101153.88
2018-06-16T17:49:07.057Z,101155.78
2018-06-16T17:52:11.429Z,101161.56
2018-06-16T17:55:15.968Z,101161.00
2018-06-16T17:58:20.325Z,101160.16
2018-06-16T18:01:24.724Z,101151.36
2018-06-16T18:04:29.156Z,101154.95
2018-06-16T18:07:33.538Z,101158.53
2018-06-16T18:10:37.956Z,101157.72
2018-06-16T18:13:42.335Z,101158.83
2018-06-16T18:16:46.755Z,101163.77
2018-06-16T18:19:51.109Z,101164.05
2018-06-16T18:22:55.457Z,101167.91
2018-06-16T18:25:59.866Z,101173.13
2018-06-16T18:29:04.225Z,101173.67
2018-06-16T18:32:08.600Z,101176.16
2018-06-16T18:35:13.005Z,101179.99
2018-06-16T18:38:17.352Z,101180.23
2018-06-16T18:41:21.720Z,101168.38
2018-06-16T18:44:26.092Z,101172.79
2018-06-16T18:47:30.453Z,101170.00
2018-06-16T18:50:34.833Z,101168.06
2018-06-16T18:53:39.184Z,101168.06
2018-06-16T18:56:43.560Z,101162.80
2018-06-16T18:59:47.941Z,101161.15
2018-06-16T19:02:52.309Z,101168.00
2018-06-16T19:05:56.673Z,101158.63
2018-06-16T19:09:01.053Z,101169.34
2018-06-16T19:12:05.441Z,101170.99
2018-06-16T19:15:09.824Z,101169.84
2018-06-16T19:18:14.184Z,101172.30
2018-06-16T19:21:18.556Z,101177.23
2018-06-16T19:24:22.914Z,101177.77
2018-06-16T19:27:27.317Z,101181.59
2018-06-16T19:30:31.710Z,101181.01
2018-06-16T19:33:36.170Z,101180.97
2018-06-16T19:36:40.523Z,101188.39
2018-06-16T19:39:44.890Z,101189.76
2018-06-16T19:42:49.274Z,101193.58
2018-06-16T19:45:53.648Z,101194.64
2018-06-16T19:48:58.036Z,101188.83
2018-06-16T19:52:02.398Z,101192.11
2018-06-16T19:55:07.706Z,101186.83
2018-06-16T19:58:12.128Z,101188.20
2018-06-16T20:01:16.509Z,101182.38
2018-06-16T20:04:20.914Z,101189.25
2018-06-16T20:07:25.277Z,101195.28
2018-06-16T20:10:29.655Z,101187.82
2018-06-16T20:13:34.018Z,101191.36
2018-06-16T20:16:38.430Z,101197.07
2018-06-16T20:19:42.802Z,101199.49
2018-06-16T20:22:47.229Z,101194.73
2018-06-16T20:25:51.603Z,101195.80
2018-06-16T20:28:55.970Z,101199.06
2018-06-16T20:32:00.355Z,101199.58
2018-06-16T20:35:04.790Z,101197.03
2018-06-16T20:38:09.185Z,101207.41
2018-06-16T20:41:13.543Z,101204.52
2018-06-16T20:44:18.084Z,101208.30
2018-06-16T20:47:22.444Z,101209.60
2018-06-16T20:50:26.835Z,101204.88
2018-06-16T20:53:31.348Z,101211.47
2018-06-16T20:56:35.733Z,101214.42
2018-06-16T20:59:40.121Z,101218.77
2018-06-16T21:02:44.493Z,101215.11
2018-06-16T21:05:48.865Z,101205.48
2018-06-16T21:08:53.258Z,101205.41
2018-06-16T21:11:57.625Z,101191.62
2018-06-16T21:15:01.981Z,101191.03
2018-06-16T21:18:06.557Z,101188.24
2018-06-16T21:21:10.950Z,101193.41
2018-06-16T21:24:15.333Z,101188.38
2018-06-16T21:27:19.693Z,101194.94
2018-06-16T21:30:23.843Z,101191.58
2018-06-16T21:33:28.197Z,101183.02
2018-06-16T21:36:32.598Z,101181.64
2018-06-16T21:39:36.996Z,101178.31
2018-06-16T21:42:41.385Z,101173.61
2018-06-16T21:45:45.769Z,101170.24
2018-06-16T21:48:50.142Z,101184.47
2018-06-16T21:51:54.530Z,101181.61
2018-06-16T21:54:58.941Z,101178.53
2018-06-16T21:58:03.313Z,101180.72
2018-06-16T22:01:07.736Z,101194.09
2018-06-16T22:04:12.097Z,101190.77
2018-06-16T22:07:16.625Z,101182.54
2018-06-16T22:10:21.060Z,101178.48
2018-06-16T22:13:25.426Z,101173.55
2018-06-16T22:16:29.805Z,101184.27
2018-06-16T22:19:34.191Z,101174.92
2018-06-16T22:22:38.557Z,101177.11
2018-06-16T22:25:42.949Z,101164.72
2018-06-16T22:28:47.325Z,101177.84
2018-06-16T22:31:51.740Z,101186.58
2018-06-16T22:34:55.867Z,101182.18
2018-06-16T22:38:00.004Z,101186.58
2018-06-16T22:41:04.378Z,101179.16
2018-06-16T22:44:09.571Z,101178.41
2018-06-16T22:47:13.920Z,101186.32
2018-06-16T22:50:18.335Z,101192.36
2018-06-16T22:53:22.706Z,101181.14
2018-06-16T22:56:27.140Z,101170.13
2018-06-16T22:59:31.493Z,101182.46
2018-06-16T23:02:36.063Z,101181.89
2018-06-16T23:05:40.452Z,101173.67
2018-06-16T23:08:44.873Z,101171.24
2018-06-16T23:11:49.261Z,101178.12
2018-06-16T23:14:53.674Z,101188.34
2018-06-16T23:17:58.081Z,101200.73
2018-06-16T23:21:02.479Z,101209.52
2018-06-16T23:24:06.861Z,101227.03
2018-06-16T23:27:11.253Z,101234.77
2018-06-16T23:30:15.685Z,101235.73
2018-06-16T23:33:20.064Z,101230.50
2018-06-16T23:36:24.457Z,101221.97
2018-06-16T23:39:28.845Z,101237.73
2018-06-16T23:42:33.221Z,101239.26
2018-06-16T23:45:37.613Z,101232.63
2018-06-16T23:48:42.012Z,101227.30
2018-06-16T23:51:46.382Z,101215.36
2018-06-16T23:54:50.802Z,101216.57
2018-06-16T23:57:55.197Z,101224.72
